Time;durP1;ratioP1;P1;durP2;ratioP2;P2;SDS_P1;SDS_P2;PMS_P1;PMS_P2;Temp;Humidity;BMP_temperature;BMP_pressure;BME280_temperature;BME280_humidity;BME280_pressure;Samples;Min_cycle;Max_cycle;Signal;HPM_P1;HPM_P2
2023/07/23 00:05:24;;;;;;;;;;;;;;;16.70;76.76;99042.53;6189427;23;20483;-94
2023/07/23 00:07:51;;;;;;;;;;;;;;;16.58;76.92;99044.22;6140471;23;19927;-93
2023/07/23 00:10:18;;;;;;;;;;;;;;;16.53;77.36;99039.00;6172848;23;19967;-90
2023/07/23 00:13:13;;;;;;;;;;;;;;;16.47;77.46;99051.47;6195796;23;19931;-91
2023/07/23 00:16:16;;;;;;;;;;;;;;;16.44;77.82;99049.44;6195126;23;20270;-91
2023/07/23 00:19:19;;;;;;;;;;;;;;;16.38;78.13;99046.13;6194383;23;19999;-91
2023/07/23 00:22:19;;;;;;;;;;;;;;;16.35;77.94;99048.81;6188475;23;19998;-91
2023/07/23 00:25:10;;;;;;;;;;;;;;;16.29;77.66;99050.25;6185558;23;19920;-90
2023/07/23 00:28:02;;;;;;;;;;;;;;;16.24;77.24;99042.25;6187161;23;19920;-90
2023/07/23 00:30:28;;;;;;;;;;;;;;;16.23;77.83;99046.19;6162212;23;19949;-91
2023/07/23 00:33:06;;;;;;;;;;;;;;;16.26;78.04;99045.44;6160965;23;20339;-92
2023/07/23 00:35:57;;;;;;;;;;;;;;;16.28;78.21;99043.94;6136644;23;19979;-89
2023/07/23 00:39:02;;;;;;;;;;;;;;;16.25;77.89;99041.88;6185655;23;19927;-90
2023/07/23 00:41:32;;;;;;;;;;;;;;;16.29;77.74;99044.72;6155926;23;19927;-91
2023/07/23 00:44:13;;;;;;;;;;;;;;;16.24;77.19;99037.53;6156015;23;20060;-91
2023/07/23 00:46:40;;;;;;;;;;;;;;;16.18;77.52;99037.00;6130376;23;19932;-91
2023/07/23 00:49:06;;;;;;;;;;;;;;;16.11;77.59;99034.06;6131948;23;19924;-92
2023/07/23 00:52:01;;;;;;;;;;;;;;;16.09;77.96;99028.13;6111648;23;19921;-91
2023/07/23 00:55:19;;;;;;;;;;;;;;;16.01;78.41;99048.41;6087184;23;19927;-92
2023/07/23 00:57:45;;;;;;;;;;;;;;;15.98;78.80;99049.91;6081227;23;19944;-92
2023/07/23 01:00:22;;;;;;;;;;;;;;;15.94;78.89;99042.72;6132806;23;20346;-92
2023/07/23 01:02:48;;;;;;;;;;;;;;;15.94;79.27;99042.72;6111091;23;19986;-96
2023/07/23 01:05:27;;;;;;;;;;;;;;;15.92;79.65;99050.53;6135087;23;19920;-93
2023/07/23 01:08:18;;;;;;;;;;;;;;;15.93;79.21;99055.69;6136338;23;19928;-96
2023/07/23 01:11:10;;;;;;;;;;;;;;;15.92;79.34;99048.56;6108774;23;19927;-90
2023/07/23 01:13:39;;;;;;;;;;;;;;;15.91;79.65;99052.47;6144535;23;19920;-90
2023/07/23 01:16:42;;;;;;;;;;;;;;;15.87;79.73;99051.59;6160248;23;20015;-95
2023/07/23 01:19:08;;;;;;;;;;;;;;;15.84;79.97;99046.78;6140977;23;19924;-95
2023/07/23 01:21:34;;;;;;;;;;;;;;;15.85;80.04;99051.13;6165787;23;19928;-94
2023/07/23 01:24:00;;;;;;;;;;;;;;;15.92;80.09;99048.56;6141467;23;19944;-95
2023/07/23 01:26:27;;;;;;;;;;;;;;;15.95;79.68;99047.84;6186088;23;19924;-92
2023/07/23 01:28:53;;;;;;;;;;;;;;;15.98;79.94;99055.41;6190070;23;19995;-96
2023/07/23 01:31:31;;;;;;;;;;;;;;;16.01;79.78;99059.41;6165406;23;19950;-94
2023/07/23 01:38:18;;;;;;;;;;;;;;;16.08;79.89;99050.53;6179976;23;19952;-88
2023/07/23 01:41:27;;;;;;;;;;;;;;;16.07;79.94;99044.22;6194119;23;19920;-95
2023/07/23 01:44:27;;;;;;;;;;;;;;;16.13;79.54;99044.75;6164919;23;19920;-91
2023/07/23 01:47:04;;;;;;;;;;;;;;;16.16;79.09;99046.81;6139944;23;19927;-96
2023/07/23 01:49:42;;;;;;;;;;;;;;;16.15;79.37;99045.97;6101762;23;19921;-91
2023/07/23 01:52:42;;;;;;;;;;;;;;;16.15;79.43;99039.66;6079463;23;19928;-90
2023/07/23 01:55:45;;;;;;;;;;;;;;;16.15;79.48;99042.44;6103470;23;19999;-90
2023/07/23 01:58:36;;;;;;;;;;;;;;;16.13;79.70;99047.53;6079402;23;19964;-91
2023/07/23 02:01:04;;;;;;;;;;;;;;;16.13;79.86;99037.28;6081618;23;19924;-91
2023/07/23 02:04:21;;;;;;;;;;;;;;;16.13;79.84;99037.28;6128748;23;19946;-96
2023/07/23 02:06:48;;;;;;;;;;;;;;;16.10;80.29;99048.22;6050645;23;19953;-91
2023/07/23 02:09:14;;;;;;;;;;;;;;;16.13;80.20;99044.75;6081730;23;19921;-94
2023/07/23 02:11:44;;;;;;;;;;;;;;;16.14;80.15;99044.38;6052476;23;20018;-91
2023/07/23 02:14:25;;;;;;;;;;;;;;;16.17;80.13;99037.38;6095819;23;19974;-92
2023/07/23 02:17:17;;;;;;;;;;;;;;;16.20;80.31;99044.94;6112165;23;19931;-90
2023/07/23 02:20:20;;;;;;;;;;;;;;;16.20;80.10;99045.72;6133716;23;19921;-96
2023/07/23 02:23:22;;;;;;;;;;;;;;;16.24;80.12;99040.28;6112658;23;20011;-93
2023/07/23 02:26:12;;;;;;;;;;;;;;;16.25;80.66;99041.88;6079210;23;19961;-93
2023/07/23 02:29:00;;;;;;;;;;;;;;;16.27;80.75;99039.59;6029345;23;19926;-96
2023/07/23 02:31:26;;;;;;;;;;;;;;;16.32;80.21;99050.31;6020570;23;20001;-93
2023/07/23 02:34:01;;;;;;;;;;;;;;;16.33;80.11;99045.63;6018043;23;19922;-95
2023/07/23 02:36:28;;;;;;;;;;;;;;;16.38;80.10;99042.59;5996098;23;19946;-95
2023/07/23 02:39:09;;;;;;;;;;;;;;;16.42;80.01;99046.22;6020832;23;19941;-94
2023/07/23 02:42:12;;;;;;;;;;;;;;;16.43;80.06;99050.59;5998572;23;19922;-95
2023/07/23 02:45:03;;;;;;;;;;;;;;;16.43;80.10;99045.88;5999310;23;19950;-94
2023/07/23 02:55:18;;;;;;;;;;;;;;;16.46;79.65;99041.59;5968470;24;19922;-93
2023/07/23 03:02:28;;;;;;;;;;;;;;;;;;;;;
2023/07/23 03:05:46;;;;;;;;;;;;;;;16.64;79.55;99028.19;5889306;24;19928;-96
2023/07/23 03:08:49;;;;;;;;;;;;;;;16.67;78.83;99042.06;5883704;24;19948;-96
2023/07/23 03:11:50;;;;;;;;;;;;;;;16.81;78.00;99049.09;5855433;24;20481;-92
2023/07/23 03:18:03;;;;;;;;;;;;;;;16.89;76.69;99046.16;6326025;22;19923;-96
2023/07/23 03:24:21;;;;;;;;;;;;;;;16.85;77.73;99049.97;6232970;23;20429;-89
2023/07/23 03:27:50;;;;;;;;;;;;;;;16.83;77.31;99047.59;6227582;23;19927;-91
2023/07/23 03:35:11;;;;;;;;;;;;;;;16.83;77.08;99046.78;6251592;22;19977;-95
2023/07/23 03:37:50;;;;;;;;;;;;;;;16.87;77.19;99042.16;6229748;22;19926;-90
2023/07/23 04:06:22;;;;;;;;;;;;;;;18.32;72.52;99045.25;6284352;22;20015;-90
2023/07/23 04:09:13;;;;;;;;;;;;;;;18.39;71.43;99048.13;6236513;22;19926;-93
2023/07/23 04:15:58;;;;;;;;;;;;;;;18.32;69.67;99042.50;6198765;23;19924;-93
2023/07/23 04:19:01;;;;;;;;;;;;;;;18.41;69.74;99045.81;6234037;22;19933;-92
2023/07/23 04:25:31;;;;;;;;;;;;;;;18.58;70.65;99050.00;6252954;22;19923;-92
2023/07/23 04:28:21;;;;;;;;;;;;;;;18.55;68.57;99046.00;6204145;23;19924;-92
2023/07/23 04:30:53;;;;;;;;;;;;;;;18.60;68.81;99041.31;6230326;22;19930;-92
2023/07/23 04:36:17;;;;;;;;;;;;;;;18.68;68.92;99046.59;6291797;22;19929;-87
2023/07/23 04:44:39;;;;;;;;;;;;;;;18.88;69.21;99052.84;6298786;22;20005;-95
2023/07/23 04:51:10;;;;;;;;;;;;;;;18.86;69.65;99054.38;6294305;22;19919;-93
2023/07/23 04:53:36;;;;;;;;;;;;;;;19.03;69.09;99053.81;6265036;22;19915;-93
2023/07/23 04:56:03;;;;;;;;;;;;;;;19.06;67.37;99058.59;6287867;22;19926;-91
2023/07/23 04:58:30;;;;;;;;;;;;;;;19.06;67.02;99055.84;6286465;22;19922;-92
2023/07/23 05:01:12;;;;;;;;;;;;;;;19.20;65.60;99050.50;6309015;22;19911;-90
2023/07/23 05:03:42;;;;;;;;;;;;;;;19.36;66.43;99047.50;6287105;22;19923;-94
2023/07/23 05:06:14;;;;;;;;;;;;;;;19.51;66.55;99048.47;6263863;22;19919;-93
2023/07/23 05:09:05;;;;;;;;;;;;;;;19.53;65.55;99040.53;6234287;22;20252;-92
2023/07/23 05:11:31;;;;;;;;;;;;;;;19.60;65.27;99035.09;6232397;22;19919;-93
2023/07/23 05:13:58;;;;;;;;;;;;;;;19.56;64.79;99037.00;6251966;22;19919;-92
2023/07/23 05:16:27;;;;;;;;;;;;;;;19.61;65.62;99042.22;6250732;22;19967;-91
2023/07/23 05:18:54;;;;;;;;;;;;;;;19.71;64.53;99033.25;6285771;22;19919;-92
2023/07/23 05:21:20;;;;;;;;;;;;;;;19.85;64.81;99034.56;6282856;22;19930;-93
2023/07/23 05:26:21;;;;;;;;;;;;;;;20.35;59.47;99030.22;6288910;22;19919;-93
2023/07/23 05:28:51;;;;;;;;;;;;;;;20.27;59.74;99025.03;6261946;22;19926;-92
2023/07/23 05:31:17;;;;;;;;;;;;;;;20.31;60.59;99020.28;6261179;22;19942;-95
2023/07/23 05:33:43;;;;;;;;;;;;;;;20.38;59.80;99025.88;6238142;22;19919;-92
2023/07/23 05:36:09;;;;;;;;;;;;;;;20.25;58.89;99027.38;6236901;22;19927;-95
2023/07/23 05:38:52;;;;;;;;;;;;;;;20.18;60.49;99026.13;6247538;22;19915;-94
2023/07/23 05:41:18;;;;;;;;;;;;;;;20.21;61.75;99016.25;6238502;22;19971;-95
2023/07/23 05:43:43;;;;;;;;;;;;;;;20.26;61.66;99013.09;6238686;22;19903;-92
2023/07/23 05:46:35;;;;;;;;;;;;;;;20.56;61.89;99015.72;6286947;22;19930;-92
2023/07/23 05:49:01;;;;;;;;;;;;;;;20.84;61.00;99011.50;6238358;22;19946;-93
2023/07/23 05:51:27;;;;;;;;;;;;;;;21.13;59.17;99014.44;6234622;22;19942;-92
2023/07/23 05:53:52;;;;;;;;;;;;;;;21.32;59.05;99012.13;6229376;22;19954;-91
2023/07/23 05:56:18;;;;;;;;;;;;;;;21.46;57.50;99011.38;6257004;22;20223;-92
2023/07/23 05:58:45;;;;;;;;;;;;;;;21.57;57.19;99009.41;6279772;22;20376;-92
2023/07/23 06:01:11;;;;;;;;;;;;;;;21.81;56.45;99005.06;6229500;22;19926;-92
2023/07/23 06:03:36;;;;;;;;;;;;;;;22.16;56.54;99009.09;6253262;22;19919;-94
2023/07/23 06:06:02;;;;;;;;;;;;;;;22.24;54.97;99005.09;6255585;22;19926;-92
2023/07/23 06:08:28;;;;;;;;;;;;;;;22.24;53.32;99010.66;6264341;22;19920;-90
2023/07/23 06:10:54;;;;;;;;;;;;;;;22.28;53.07;99005.09;6239406;22;19945;-90
2023/07/23 06:13:19;;;;;;;;;;;;;;;22.40;54.01;99007.47;6260976;22;19923;-91
2023/07/23 06:15:45;;;;;;;;;;;;;;;22.36;53.60;99008.69;6255109;22;20257;-94
2023/07/23 06:18:11;;;;;;;;;;;;;;;22.32;53.73;99003.13;6281885;22;19941;-90
2023/07/23 06:21:03;;;;;;;;;;;;;;;22.24;54.57;99005.09;6281704;22;19915;-93
2023/07/23 06:23:28;;;;;;;;;;;;;;;22.25;54.80;98998.34;6256050;22;19927;-92
2023/07/23 06:26:22;;;;;;;;;;;;;;;22.19;53.92;99013.88;6281879;22;19947;-90
2023/07/23 06:28:47;;;;;;;;;;;;;;;22.16;53.67;99008.31;6254611;22;19950;-92
2023/07/23 06:31:22;;;;;;;;;;;;;;;22.02;54.14;99009.88;6280026;22;19930;-89
2023/07/23 06:33:48;;;;;;;;;;;;;;;21.90;54.50;99012.25;6251813;22;19919;-95
2023/07/23 06:36:23;;;;;;;;;;;;;;;21.85;54.66;99018.19;6250310;22;19942;-89
2023/07/23 06:38:49;;;;;;;;;;;;;;;21.77;55.47;99015.41;6279387;22;19927;-89
2023/07/23 06:41:14;;;;;;;;;;;;;;;21.67;55.81;99009.81;6227742;22;20005;-95
2023/07/23 06:44:05;;;;;;;;;;;;;;;21.66;55.88;99006.25;6254245;22;19972;-92
2023/07/23 06:46:31;;;;;;;;;;;;;;;21.64;57.38;99014.19;6251752;22;19947;-91
2023/07/23 06:48:57;;;;;;;;;;;;;;;21.71;57.93;99016.19;6231929;22;19998;-92
2023/07/23 06:51:25;;;;;;;;;;;;;;;21.76;57.53;99008.25;6281583;22;19966;-91
2023/07/23 06:53:52;;;;;;;;;;;;;;;21.83;57.66;99015.81;6281300;22;19926;-91
2023/07/23 06:56:19;;;;;;;;;;;;;;;21.86;58.23;99014.22;6278020;22;19927;-90
2023/07/23 06:58:45;;;;;;;;;;;;;;;21.98;57.87;99008.25;6281056;22;19953;-90
2023/07/23 07:01:12;;;;;;;;;;;;;;;21.91;58.22;99016.59;6283044;22;20181;-91
2023/07/23 07:03:37;;;;;;;;;;;;;;;21.94;59.41;99013.81;6282707;22;19959;-90
2023/07/23 07:06:12;;;;;;;;;;;;;;;22.08;58.58;99010.25;6252600;22;19920;-90
2023/07/23 07:08:38;;;;;;;;;;;;;;;22.04;58.41;99017.81;6204535;22;19927;-93
2023/07/23 07:13:54;;;;;;;;;;;;;;;21.98;59.77;99016.59;6261175;22;19950;-90
2023/07/23 07:16:20;;;;;;;;;;;;;;;22.07;60.30;99017.00;6281657;22;19942;-94
2023/07/23 07:18:47;;;;;;;;;;;;;;;22.05;59.26;99002.69;6282553;22;19919;-90
2023/07/23 07:21:13;;;;;;;;;;;;;;;22.13;59.23;99006.28;6279625;22;20355;-92
2023/07/23 07:26:25;;;;;;;;;;;;;;;22.20;57.97;99009.88;6156714;23;19927;-91
2023/07/23 07:28:51;;;;;;;;;;;;;;;22.27;57.85;99004.31;6106678;23;19921;-96
2023/07/23 07:31:17;;;;;;;;;;;;;;;22.16;57.39;99008.31;6133306;23;20351;-91
2023/07/23 07:33:45;;;;;;;;;;;;;;;22.20;57.57;99012.66;6082208;23;19928;-89
2023/07/23 07:36:14;;;;;;;;;;;;;;;22.07;56.76;99005.88;6085171;23;19920;-91
2023/07/23 07:38:41;;;;;;;;;;;;;;;21.93;56.52;99014.22;6132438;23;19921;-91
2023/07/23 07:41:07;;;;;;;;;;;;;;;21.82;56.17;99017.00;6133220;23;20015;-92
2023/07/23 07:44:05;;;;;;;;;;;;;;;21.85;55.30;99015.41;6131815;23;20076;-91
2023/07/23 07:46:32;;;;;;;;;;;;;;;21.85;55.72;99018.97;6108338;23;20003;-91
2023/07/23 07:48:59;;;;;;;;;;;;;;;21.97;55.15;99013.03;6081497;23;20128;-94
2023/07/23 07:51:50;;;;;;;;;;;;;;;22.05;56.16;99002.69;6157128;23;19920;-90
2023/07/23 07:54:16;;;;;;;;;;;;;;;22.17;56.14;98999.53;6112063;23;19940;-89
2023/07/23 07:57:03;;;;;;;;;;;;;;;22.25;54.77;99012.28;6042386;23;19922;-94
2023/07/23 07:59:30;;;;;;;;;;;;;;;22.23;54.60;99020.22;6015644;23;19974;-89
2023/07/23 08:01:59;;;;;;;;;;;;;;;22.34;55.06;99009.06;5996387;23;19966;-93
2023/07/23 08:04:25;;;;;;;;;;;;;;;22.46;55.09;99005.88;6173188;23;19927;-91
2023/07/23 08:06:51;;;;;;;;;;;;;;;22.49;53.54;99005.06;6168609;23;19938;-90
2023/07/23 08:09:18;;;;;;;;;;;;;;;22.61;53.78;99001.06;6166793;23;19932;-90
2023/07/23 08:11:46;;;;;;;;;;;;;;;22.69;52.91;99004.63;6099661;23;19920;-89
2023/07/23 08:14:13;;;;;;;;;;;;;;;22.75;53.21;99017.75;6166834;23;20007;-89
2023/07/23 08:16:39;;;;;;;;;;;;;;;22.68;52.11;99020.56;6193134;23;19931;-89
2023/07/23 08:19:25;;;;;;;;;;;;;;;22.66;52.87;99011.81;6145427;23;19916;-88
2023/07/23 08:21:51;;;;;;;;;;;;;;;22.70;53.28;99014.56;6078977;23;20498;-91
2023/07/23 08:24:18;;;;;;;;;;;;;;;22.86;53.91;99009.34;6083400;23;20380;-90
2023/07/23 08:26:47;;;;;;;;;;;;;;;22.82;53.33;99014.16;6079908;23;19944;-90
2023/07/23 08:29:17;;;;;;;;;;;;;;;22.54;53.58;99012.22;6077676;23;20465;-90
2023/07/23 08:31:43;;;;;;;;;;;;;;;22.42;54.63;99009.88;6075027;23;19945;-92
2023/07/23 08:34:09;;;;;;;;;;;;;;;22.35;54.32;99012.63;6116321;23;19928;-89
2023/07/23 08:36:36;;;;;;;;;;;;;;;22.23;54.08;99011.06;6082050;23;20003;-90
2023/07/23 08:39:04;;;;;;;;;;;;;;;22.25;54.92;99012.28;6080206;23;19942;-91
2023/07/23 08:41:48;;;;;;;;;;;;;;;22.37;55.34;99016.63;6109434;23;20352;-91
2023/07/23 08:44:32;;;;;;;;;;;;;;;22.45;55.83;99015.44;6106888;23;19920;-90
2023/07/23 08:47:20;;;;;;;;;;;;;;;22.58;56.20;99010.22;6135869;23;19932;-90
2023/07/23 08:49:47;;;;;;;;;;;;;;;22.71;55.58;99010.59;6132934;23;20490;-92
2023/07/23 08:52:13;;;;;;;;;;;;;;;22.68;54.00;99000.25;6085642;23;20420;-92
2023/07/23 08:54:42;;;;;;;;;;;;;;;22.70;55.93;99000.66;6132817;23;19952;-91
2023/07/23 08:57:09;;;;;;;;;;;;;;;22.77;54.31;99002.63;6136656;23;19920;-91
2023/07/23 08:59:35;;;;;;;;;;;;;;;22.66;53.71;98999.88;6220871;22;19941;-90
2023/07/23 09:02:02;;;;;;;;;;;;;;;22.62;54.23;99004.66;6253012;22;19954;-91
2023/07/23 09:04:28;;;;;;;;;;;;;;;22.63;54.99;98997.88;6284740;22;19919;-91
2023/07/23 09:06:58;;;;;;;;;;;;;;;22.70;55.00;98989.50;6253946;22;19926;-90
2023/07/23 09:09:27;;;;;;;;;;;;;;;22.71;54.94;98997.47;6229025;22;19927;-89
2023/07/23 09:15:11;;;;;;;;;;;;;;;22.47;55.21;98987.97;6284227;22;19906;-91
2023/07/23 09:17:38;;;;;;;;;;;;;;;22.43;57.06;98986.38;6233372;22;19926;-92
2023/07/23 09:20:09;;;;;;;;;;;;;;;22.37;55.71;98988.78;6232076;22;19955;-89
2023/07/23 09:22:35;;;;;;;;;;;;;;;22.43;56.32;98986.38;6231313;22;19973;-91
2023/07/23 09:25:02;;;;;;;;;;;;;;;22.43;56.21;99000.31;6282524;22;20624;-91
2023/07/23 09:27:36;;;;;;;;;;;;;;;22.32;56.30;98988.38;6257403;22;19946;-93
2023/07/23 09:30:04;;;;;;;;;;;;;;;22.16;56.94;98991.59;6258121;22;19919;-91
2023/07/23 09:32:34;;;;;;;;;;;;;;;22.15;56.57;98992.75;6231385;22;20026;-90
2023/07/23 09:35:03;;;;;;;;;;;;;;;22.20;57.09;98979.25;6255153;22;19946;-90
2023/07/23 09:37:35;;;;;;;;;;;;;;;22.23;57.82;98989.59;6281704;22;19976;-92
2023/07/23 09:40:03;;;;;;;;;;;;;;;22.09;58.48;98980.44;6284565;22;19919;-91
2023/07/23 09:42:29;;;;;;;;;;;;;;;21.94;59.29;98982.41;6227342;22;19924;-94
2023/07/23 09:44:59;;;;;;;;;;;;;;;21.81;60.24;98988.38;6228202;22;19920;-92
2023/07/23 09:47:30;;;;;;;;;;;;;;;21.73;62.20;98981.22;6235482;22;20504;-90
2023/07/23 09:49:55;;;;;;;;;;;;;;;21.66;61.67;98974.88;6253632;22;19927;-92
2023/07/23 09:52:33;;;;;;;;;;;;;;;21.63;61.18;98979.22;6278268;22;19915;-92
2023/07/23 09:54:59;;;;;;;;;;;;;;;21.57;61.18;98978.03;6281389;22;19923;-92
2023/07/23 09:57:27;;;;;;;;;;;;;;;21.53;61.96;98975.25;6254907;22;19919;-90
2023/07/23 09:59:53;;;;;;;;;;;;;;;21.58;62.66;98976.81;6227111;22;20352;-90
2023/07/23 10:02:21;;;;;;;;;;;;;;;21.54;61.41;98973.25;6253491;22;20238;-92
2023/07/23 10:04:48;;;;;;;;;;;;;;;21.56;61.43;98982.78;6232146;22;19919;-93
2023/07/23 10:07:22;;;;;;;;;;;;;;;21.53;61.20;98971.66;6228763;22;20265;-90
2023/07/23 10:09:48;;;;;;;;;;;;;;;21.44;60.74;98974.81;6282048;22;19925;-92
2023/07/23 10:12:15;;;;;;;;;;;;;;;21.51;61.20;98976.81;6236965;22;19946;-91
2023/07/23 10:14:42;;;;;;;;;;;;;;;21.50;60.56;98980.78;6235664;22;19950;-91
2023/07/23 10:17:12;;;;;;;;;;;;;;;21.51;60.88;98974.03;6291757;22;19927;-90
2023/07/23 10:19:44;;;;;;;;;;;;;;;21.56;60.89;98976.44;6259044;22;20002;-89
2023/07/23 10:22:42;;;;;;;;;;;;;;;21.49;59.36;98974.44;6261999;22;19919;-91
2023/07/23 10:25:39;;;;;;;;;;;;;;;21.39;59.86;98988.31;6287199;22;20345;-90
2023/07/23 10:28:35;;;;;;;;;;;;;;;21.24;60.71;98982.69;6287833;22;19938;-90
2023/07/23 10:31:21;;;;;;;;;;;;;;;21.20;61.28;98983.88;6259568;22;19929;-90
2023/07/23 10:33:50;;;;;;;;;;;;;;;21.10;61.09;98991.78;6288457;22;20372;-90
2023/07/23 10:36:16;;;;;;;;;;;;;;;21.12;61.23;98994.16;6288662;22;19920;-89
2023/07/23 10:38:42;;;;;;;;;;;;;;;21.16;60.84;98989.44;6252394;22;19926;-89
2023/07/23 10:41:08;;;;;;;;;;;;;;;21.18;61.18;98983.47;6282658;22;19919;-92
2023/07/23 10:43:45;;;;;;;;;;;;;;;21.20;60.80;98984.66;6228105;22;19919;-89
2023/07/23 10:46:37;;;;;;;;;;;;;;;21.33;60.79;98983.13;6255186;22;19920;-91
2023/07/23 10:49:30;;;;;;;;;;;;;;;21.83;60.15;98979.63;6283887;22;19945;-92
2023/07/23 10:52:31;;;;;;;;;;;;;;;22.20;59.32;98978.47;6280493;22;19926;-92
2023/07/23 10:55:03;;;;;;;;;;;;;;;22.22;57.22;98981.66;6284760;22;19926;-89
2023/07/23 10:57:35;;;;;;;;;;;;;;;22.49;58.61;98970.84;6291369;22;19923;-89
2023/07/23 11:00:02;;;;;;;;;;;;;;;22.45;56.79;98970.06;6295478;22;19923;-90
2023/07/23 11:02:30;;;;;;;;;;;;;;;22.54;56.70;98967.66;6287960;22;19969;-88
2023/07/23 11:05:21;;;;;;;;;;;;;;;22.47;56.55;98971.25;6164370;23;19920;-89
2023/07/23 11:08:15;;;;;;;;;;;;;;;22.47;56.59;98973.25;6169530;23;19931;-90
2023/07/23 11:11:02;;;;;;;;;;;;;;;22.48;57.33;98961.72;6169386;23;19959;-91
2023/07/23 11:13:32;;;;;;;;;;;;;;;22.44;55.93;98971.25;6166092;23;19924;-90
2023/07/23 11:15:58;;;;;;;;;;;;;;;22.54;56.27;98964.06;6168319;23;19920;-90
2023/07/23 11:18:26;;;;;;;;;;;;;;;22.61;57.01;98969.63;6140261;23;20008;-89
2023/07/23 11:20:54;;;;;;;;;;;;;;;22.70;56.01;98965.22;6162206;23;19920;-90
2023/07/23 11:23:22;;;;;;;;;;;;;;;22.89;56.24;98955.59;6166464;23;19931;-93
2023/07/23 11:26:14;;;;;;;;;;;;;;;22.94;55.29;98957.97;6107660;23;19948;-90
2023/07/23 11:28:41;;;;;;;;;;;;;;;22.86;55.19;98958.41;6098303;23;19917;-89
2023/07/23 11:31:07;;;;;;;;;;;;;;;22.93;55.31;98963.97;6078517;23;20004;-90
2023/07/23 11:33:35;;;;;;;;;;;;;;;22.98;55.30;98953.19;6109619;23;19939;-87
2023/07/23 11:36:02;;;;;;;;;;;;;;;22.92;55.04;98954.00;6054344;23;19969;-91
2023/07/23 11:38:31;;;;;;;;;;;;;;;22.77;55.44;98964.41;6053847;23;19921;-88
2023/07/23 11:40:58;;;;;;;;;;;;;;;22.49;54.12;98959.72;6028496;23;19957;-91
2023/07/23 11:43:26;;;;;;;;;;;;;;;22.34;55.91;98955.38;6116963;23;19928;-91
2023/07/23 11:45:52;;;;;;;;;;;;;;;22.15;55.86;98950.97;6117488;23;19925;-90
2023/07/23 11:48:25;;;;;;;;;;;;;;;22.17;56.57;98934.72;6169416;23;19913;-89
2023/07/23 11:51:09;;;;;;;;;;;;;;;22.16;56.22;98939.50;6126030;23;19905;-92
2023/07/23 11:53:46;;;;;;;;;;;;;;;22.05;56.44;98938.66;6151931;23;19924;-90
2023/07/23 11:57:01;;;;;;;;;;;;;;;21.86;57.50;98942.69;6137690;23;19951;-90
2023/07/23 11:59:27;;;;;;;;;;;;;;;21.77;58.51;98939.50;6110935;23;20446;-91
2023/07/23 12:01:57;;;;;;;;;;;;;;;21.79;59.15;98940.69;6092473;23;20271;-91
2023/07/23 12:04:28;;;;;;;;;;;;;;;21.79;58.91;98948.25;6177907;23;19917;-90
2023/07/23 12:06:54;;;;;;;;;;;;;;;21.87;58.43;98940.69;6170437;23;19927;-92
2023/07/23 12:09:21;;;;;;;;;;;;;;;21.66;58.97;98942.28;6171997;23;19924;-91
2023/07/23 12:12:13;;;;;;;;;;;;;;;21.60;60.20;98934.72;6171468;23;19940;-92
2023/07/23 12:14:42;;;;;;;;;;;;;;;21.62;60.74;98935.88;6262178;23;19907;-92
2023/07/23 12:21:04;;;;;;;;;;;;;;;21.72;60.23;98929.56;6297394;22;19899;-90
2023/07/23 12:23:56;;;;;;;;;;;;;;;21.61;59.94;98934.31;6297025;22;19923;-92
2023/07/23 12:26:22;;;;;;;;;;;;;;;21.66;59.91;98936.72;6231504;22;19919;-89
2023/07/23 12:29:16;;;;;;;;;;;;;;;21.78;60.27;98927.94;6266697;22;20273;-89
2023/07/23 12:31:45;;;;;;;;;;;;;;;21.75;59.12;98931.53;6233393;22;19923;-91
2023/07/23 12:34:39;;;;;;;;;;;;;;;21.63;59.67;98925.59;6291339;22;19926;-89
2023/07/23 12:37:07;;;;;;;;;;;;;;;21.73;59.68;98935.91;6290076;22;19923;-94
2023/07/23 12:39:34;;;;;;;;;;;;;;;21.58;59.89;98935.09;6292352;22;20003;-94
2023/07/23 12:42:00;;;;;;;;;;;;;;;21.57;60.95;98931.53;6286375;22;19919;-91
2023/07/23 12:44:29;;;;;;;;;;;;;;;21.45;61.62;98933.91;6259150;22;20222;-91
2023/07/23 12:47:20;;;;;;;;;;;;;;;21.24;62.85;98935.41;6262465;22;19919;-93
2023/07/23 12:49:46;;;;;;;;;;;;;;;21.11;63.17;98931.41;6256501;22;20353;-89
2023/07/23 12:52:19;;;;;;;;;;;;;;;21.04;64.04;98934.19;6284393;22;19968;-91
2023/07/23 12:54:48;;;;;;;;;;;;;;;21.04;64.74;98929.41;6233702;22;19926;-91
2023/07/23 12:57:16;;;;;;;;;;;;;;;21.06;65.10;98934.59;6281329;22;19969;-90
2023/07/23 12:59:43;;;;;;;;;;;;;;;21.09;66.60;98933.78;6231734;22;19944;-91
2023/07/23 13:02:10;;;;;;;;;;;;;;;21.04;66.39;98931.41;6259513;22;19920;-92
2023/07/23 13:04:37;;;;;;;;;;;;;;;20.98;66.71;98941.31;6231499;22;20002;-91
2023/07/23 13:07:23;;;;;;;;;;;;;;;20.98;66.72;98935.75;6260592;22;19923;-93
2023/07/23 13:09:50;;;;;;;;;;;;;;;20.98;66.61;98938.53;6237271;22;20384;-91
2023/07/23 13:12:15;;;;;;;;;;;;;;;21.04;65.30;98934.19;6259187;22;19922;-91
2023/07/23 13:14:41;;;;;;;;;;;;;;;21.26;65.07;98929.50;6282717;22;19919;-91
2023/07/23 13:17:07;;;;;;;;;;;;;;;21.35;63.39;98927.13;6259360;22;19951;-90
2023/07/23 13:19:38;;;;;;;;;;;;;;;21.47;63.67;98931.53;6287213;22;19919;-89
2023/07/23 13:22:03;;;;;;;;;;;;;;;21.42;63.86;98929.91;6287501;22;19919;-91
2023/07/23 13:24:29;;;;;;;;;;;;;;;21.42;63.57;98926.34;6257415;22;19939;-91
2023/07/23 13:26:55;;;;;;;;;;;;;;;21.47;62.31;98925.97;6257373;22;19946;-93
2023/07/23 13:29:21;;;;;;;;;;;;;;;21.45;62.05;98925.56;6233458;22;19923;-93
2023/07/23 13:31:49;;;;;;;;;;;;;;;21.53;61.94;98914.06;6205215;22;19919;-91
2023/07/23 13:34:15;;;;;;;;;;;;;;;21.55;61.79;98910.84;6219394;23;19920;-89
2023/07/23 13:36:40;;;;;;;;;;;;;;;21.65;61.61;98914.84;6170898;23;19974;-94
2023/07/23 13:39:08;;;;;;;;;;;;;;;21.68;60.65;98906.50;6173170;23;19935;-90
2023/07/23 13:41:36;;;;;;;;;;;;;;;21.58;58.83;98899.72;6160589;23;19983;-92
2023/07/23 13:44:04;;;;;;;;;;;;;;;21.62;58.29;98893.38;6234904;23;19900;-90
2023/07/23 13:46:38;;;;;;;;;;;;;;;22.00;57.79;98903.69;6195199;23;19923;-90
2023/07/23 13:49:04;;;;;;;;;;;;;;;22.23;58.14;98891.34;6222370;23;20047;-90
2023/07/23 13:51:30;;;;;;;;;;;;;;;22.43;57.34;98898.06;6219638;23;19920;-89
2023/07/23 13:53:57;;;;;;;;;;;;;;;22.33;56.54;98896.09;6219895;23;19982;-89
2023/07/23 13:56:23;;;;;;;;;;;;;;;22.23;57.00;98903.28;6199350;23;19920;-90
2023/07/23 13:58:49;;;;;;;;;;;;;;;22.03;56.90;98897.31;6195895;23;19928;-90
2023/07/23 14:03:50;;;;;;;;;;;;;;;21.75;57.64;98895.34;6199249;23;19919;-91
2023/07/23 14:06:16;;;;;;;;;;;;;;;21.77;57.88;98906.88;6192861;23;19919;-89
2023/07/23 14:08:43;;;;;;;;;;;;;;;21.70;58.30;98895.78;6224831;23;19950;-90
2023/07/23 14:11:10;;;;;;;;;;;;;;;21.68;58.30;98891.78;6141461;23;20007;-91
2023/07/23 14:13:36;;;;;;;;;;;;;;;21.57;58.79;98898.16;6221465;23;20334;-90
2023/07/23 14:16:03;;;;;;;;;;;;;;;21.49;59.33;98885.44;6194017;23;20058;-89
2023/07/23 14:18:29;;;;;;;;;;;;;;;21.52;59.75;98886.63;6171704;23;19946;-88
2023/07/23 14:20:55;;;;;;;;;;;;;;;21.53;59.36;98877.09;6223022;23;19919;-93
2023/07/23 14:23:26;;;;;;;;;;;;;;;21.46;58.82;98880.69;6168468;23;20479;-90
2023/07/23 14:25:53;;;;;;;;;;;;;;;21.45;59.25;98883.84;6195841;23;19920;-90
2023/07/23 14:28:19;;;;;;;;;;;;;;;21.38;59.49;98883.84;6193779;23;20007;-90
2023/07/23 14:30:47;;;;;;;;;;;;;;;21.46;60.70;98880.69;6195445;23;19920;-91
2023/07/23 14:33:14;;;;;;;;;;;;;;;21.49;60.52;98881.84;6163401;23;19927;-90
2023/07/23 14:35:41;;;;;;;;;;;;;;;21.51;60.64;98877.50;6193693;23;20066;-91
2023/07/23 14:38:08;;;;;;;;;;;;;;;21.37;59.78;98876.69;6193015;23;19923;-93
2023/07/23 14:40:34;;;;;;;;;;;;;;;21.24;60.38;98877.03;6191694;23;20455;-91
2023/07/23 14:43:26;;;;;;;;;;;;;;;21.39;60.69;98877.06;6191697;23;19920;-89
2023/07/23 14:45:55;;;;;;;;;;;;;;;21.63;59.13;98873.53;6191221;23;19920;-89
2023/07/23 14:48:21;;;;;;;;;;;;;;;22.08;58.86;98873.84;6209171;22;19915;-91
2023/07/23 14:50:47;;;;;;;;;;;;;;;22.49;57.03;98860.22;6253350;22;19926;-93
2023/07/23 14:53:12;;;;;;;;;;;;;;;22.82;55.82;98865.66;6229234;22;19915;-90
2023/07/23 14:55:41;;;;;;;;;;;;;;;22.66;55.42;98858.56;6281662;22;19919;-89
2023/07/23 14:58:11;;;;;;;;;;;;;;;22.81;55.77;98862.06;6287414;22;19940;-91
2023/07/23 15:00:38;;;;;;;;;;;;;;;22.85;55.15;98859.28;6281448;22;19919;-89